sensor_id;sensor_type;location;lat;lon;timestamp;temperature;humidity
2893;DHT22;1456;51.840;12.184;2023-02-11T00:01:23;2.40;99.90
2893;DHT22;1456;51.840;12.184;2023-02-11T00:03:49;2.50;99.90
2893;DHT22;1456;51.840;12.184;2023-02-11T00:06:14;2.40;99.90
2893;DHT22;1456;51.840;12.184;2023-02-11T00:08:40;2.40;99.90
2893;DHT22;1456;51.840;12.184;2023-02-11T00:11:06;2.40;99.90
2893;DHT22;1456;51.840;12.184;2023-02-11T00:13:32;2.50;99.90
2893;DHT22;1456;51.840;12.184;2023-02-11T00:15:58;2.40;99.90
2893;DHT22;1456;51.840;12.184;2023-02-11T00:18:24;2.40;99.90
2893;DHT22;1456;51.840;12.184;2023-02-11T00:20:49;2.30;99.90
2893;DHT22;1456;51.840;12.184;2023-02-11T00:23:15;2.30;99.90
2893;DHT22;1456;51.840;12.184;2023-02-11T00:25:42;2.20;99.90
2893;DHT22;1456;51.840;12.184;2023-02-11T00:28:08;2.20;99.90
2893;DHT22;1456;51.840;12.184;2023-02-11T00:30:34;2.20;99.90
2893;DHT22;1456;51.840;12.184;2023-02-11T00:33:00;2.10;99.90
2893;DHT22;1456;51.840;12.184;2023-02-11T00:35:26;2.20;99.90
2893;DHT22;1456;51.840;12.184;2023-02-11T00:37:53;2.20;99.90
2893;DHT22;1456;51.840;12.184;2023-02-11T00:40:19;2.10;99.90
2893;DHT22;1456;51.840;12.184;2023-02-11T00:42:45;2.10;99.90
2893;DHT22;1456;51.840;12.184;2023-02-11T00:45:12;2.10;99.90
2893;DHT22;1456;51.840;12.184;2023-02-11T00:47:37;2.20;99.90
2893;DHT22;1456;51.840;12.184;2023-02-11T00:50:05;2.20;99.90
2893;DHT22;1456;51.840;12.184;2023-02-11T00:52:31;2.30;99.90
2893;DHT22;1456;51.840;12.184;2023-02-11T00:54:58;2.30;99.90
2893;DHT22;1456;51.840;12.184;2023-02-11T00:57:24;2.30;99.90
2893;DHT22;1456;51.840;12.184;2023-02-11T00:59:50;2.40;99.90
2893;DHT22;1456;51.840;12.184;2023-02-11T01:02:16;2.40;99.90
2893;DHT22;1456;51.840;12.184;2023-02-11T01:04:42;2.60;99.90
2893;DHT22;1456;51.840;12.184;2023-02-11T01:07:08;2.50;99.90
2893;DHT22;1456;51.840;12.184;2023-02-11T01:09:36;2.60;99.90
2893;DHT22;1456;51.840;12.184;2023-02-11T01:12:02;2.70;99.90
2893;DHT22;1456;51.840;12.184;2023-02-11T01:14:28;2.80;99.90
2893;DHT22;1456;51.840;12.184;2023-02-11T01:16:54;2.90;99.90
2893;DHT22;1456;51.840;12.184;2023-02-11T01:19:19;3.00;99.90
2893;DHT22;1456;51.840;12.184;2023-02-11T01:21:45;3.00;99.90
2893;DHT22;1456;51.840;12.184;2023-02-11T01:24:10;3.10;99.90
2893;DHT22;1456;51.840;12.184;2023-02-11T01:26:36;3.10;99.90
2893;DHT22;1456;51.840;12.184;2023-02-11T01:29:02;3.10;99.90
2893;DHT22;1456;51.840;12.184;2023-02-11T01:31:29;3.20;99.90
2893;DHT22;1456;51.840;12.184;2023-02-11T01:33:54;3.30;99.90
2893;DHT22;1456;51.840;12.184;2023-02-11T01:36:20;3.40;99.90
2893;DHT22;1456;51.840;12.184;2023-02-11T01:38:46;3.40;99.90
2893;DHT22;1456;51.840;12.184;2023-02-11T01:41:13;3.40;99.90
2893;DHT22;1456;51.840;12.184;2023-02-11T01:43:49;3.50;99.90
2893;DHT22;1456;51.840;12.184;2023-02-11T01:46:34;3.50;99.90
2893;DHT22;1456;51.840;12.184;2023-02-11T01:49:13;3.60;99.90
2893;DHT22;1456;51.840;12.184;2023-02-11T01:54:19;3.60;99.90
2893;DHT22;1456;51.840;12.184;2023-02-11T01:57:04;3.60;99.90
2893;DHT22;1456;51.840;12.184;2023-02-11T02:02:33;3.70;99.90
2893;DHT22;1456;51.840;12.184;2023-02-11T02:10:48;3.70;99.90
2893;DHT22;1456;51.840;12.184;2023-02-11T02:13:14;3.80;99.90
2893;DHT22;1456;51.840;12.184;2023-02-11T02:15:53;3.80;99.90
2893;DHT22;1456;51.840;12.184;2023-02-11T02:30:15;4.00;99.90
2893;DHT22;1456;51.840;12.184;2023-02-11T02:38:51;3.90;99.90
2893;DHT22;1456;51.840;12.184;2023-02-11T02:41:22;3.90;99.90
2893;DHT22;1456;51.840;12.184;2023-02-11T02:43:50;3.90;99.90
2893;DHT22;1456;51.840;12.184;2023-02-11T02:48:47;3.90;99.90
2893;DHT22;1456;51.840;12.184;2023-02-11T02:56:38;3.90;99.90
2893;DHT22;1456;51.840;12.184;2023-02-11T03:07:58;3.90;99.90
2893;DHT22;1456;51.840;12.184;2023-02-11T03:10:59;3.90;99.90
2893;DHT22;1456;51.840;12.184;2023-02-11T03:13:31;3.90;99.90
2893;DHT22;1456;51.840;12.184;2023-02-11T03:16:02;3.90;99.90
2893;DHT22;1456;51.840;12.184;2023-02-11T03:18:34;3.90;99.90
2893;DHT22;1456;51.840;12.184;2023-02-11T03:21:01;4.00;99.90
2893;DHT22;1456;51.840;12.184;2023-02-11T03:23:32;4.00;99.90
2893;DHT22;1456;51.840;12.184;2023-02-11T03:28:43;4.00;99.90
2893;DHT22;1456;51.840;12.184;2023-02-11T03:31:17;4.00;99.90
2893;DHT22;1456;51.840;12.184;2023-02-11T03:33:59;4.00;99.90
2893;DHT22;1456;51.840;12.184;2023-02-11T03:39:16;4.00;99.90
2893;DHT22;1456;51.840;12.184;2023-02-11T03:41:45;4.00;99.90
2893;DHT22;1456;51.840;12.184;2023-02-11T03:44:13;4.10;99.90
2893;DHT22;1456;51.840;12.184;2023-02-11T03:46:43;4.00;99.90
2893;DHT22;1456;51.840;12.184;2023-02-11T03:49:11;4.00;99.90
2893;DHT22;1456;51.840;12.184;2023-02-11T03:51:38;4.00;99.90
2893;DHT22;1456;51.840;12.184;2023-02-11T03:54:08;4.10;99.90
2893;DHT22;1456;51.840;12.184;2023-02-11T03:56:42;4.10;99.90
2893;DHT22;1456;51.840;12.184;2023-02-11T03:59:10;4.20;99.90
2893;DHT22;1456;51.840;12.184;2023-02-11T04:01:36;4.20;99.90
2893;DHT22;1456;51.840;12.184;2023-02-11T04:04:01;4.20;99.90
2893;DHT22;1456;51.840;12.184;2023-02-11T04:06:27;4.20;99.90
2893;DHT22;1456;51.840;12.184;2023-02-11T04:08:52;4.20;99.90
2893;DHT22;1456;51.840;12.184;2023-02-11T04:11:18;4.20;99.90
2893;DHT22;1456;51.840;12.184;2023-02-11T04:13:44;4.20;99.90
2893;DHT22;1456;51.840;12.184;2023-02-11T04:16:09;4.20;99.90
2893;DHT22;1456;51.840;12.184;2023-02-11T04:18:35;4.30;99.90
2893;DHT22;1456;51.840;12.184;2023-02-11T04:21:00;4.30;99.90
2893;DHT22;1456;51.840;12.184;2023-02-11T04:23:26;4.30;99.90
2893;DHT22;1456;51.840;12.184;2023-02-11T04:25:52;4.30;99.90
2893;DHT22;1456;51.840;12.184;2023-02-11T04:28:17;4.40;99.90
2893;DHT22;1456;51.840;12.184;2023-02-11T04:30:43;4.40;99.90
2893;DHT22;1456;51.840;12.184;2023-02-11T04:33:09;4.40;99.90
2893;DHT22;1456;51.840;12.184;2023-02-11T04:35:34;4.40;99.90
2893;DHT22;1456;51.840;12.184;2023-02-11T04:38:00;4.40;99.90
2893;DHT22;1456;51.840;12.184;2023-02-11T04:40:27;4.40;99.90
2893;DHT22;1456;51.840;12.184;2023-02-11T04:42:52;4.50;99.90
2893;DHT22;1456;51.840;12.184;2023-02-11T04:45:18;4.50;99.90
2893;DHT22;1456;51.840;12.184;2023-02-11T04:47:43;4.40;99.90
2893;DHT22;1456;51.840;12.184;2023-02-11T04:50:09;4.40;99.90
2893;DHT22;1456;51.840;12.184;2023-02-11T04:52:35;4.40;99.90
2893;DHT22;1456;51.840;12.184;2023-02-11T04:55:00;4.40;99.90
2893;DHT22;1456;51.840;12.184;2023-02-11T04:57:26;4.40;99.90
2893;DHT22;1456;51.840;12.184;2023-02-11T04:59:52;4.40;99.90
2893;DHT22;1456;51.840;12.184;2023-02-11T05:02:17;4.40;99.90
2893;DHT22;1456;51.840;12.184;2023-02-11T05:04:43;4.40;99.90
2893;DHT22;1456;51.840;12.184;2023-02-11T05:07:08;4.40;99.90
2893;DHT22;1456;51.840;12.184;2023-02-11T05:09:34;4.50;99.90
2893;DHT22;1456;51.840;12.184;2023-02-11T05:12:01;4.50;99.90
2893;DHT22;1456;51.840;12.184;2023-02-11T05:14:26;4.50;99.90
2893;DHT22;1456;51.840;12.184;2023-02-11T05:16:52;4.50;99.90
2893;DHT22;1456;51.840;12.184;2023-02-11T05:19:17;4.50;99.90
2893;DHT22;1456;51.840;12.184;2023-02-11T05:21:44;4.50;99.90
2893;DHT22;1456;51.840;12.184;2023-02-11T05:24:10;4.50;99.90
2893;DHT22;1456;51.840;12.184;2023-02-11T05:26:35;4.50;99.90
2893;DHT22;1456;51.840;12.184;2023-02-11T05:29:01;4.60;99.90
2893;DHT22;1456;51.840;12.184;2023-02-11T05:31:27;4.60;99.90
2893;DHT22;1456;51.840;12.184;2023-02-11T05:33:53;4.60;99.90
2893;DHT22;1456;51.840;12.184;2023-02-11T05:36:18;4.50;99.90
2893;DHT22;1456;51.840;12.184;2023-02-11T05:38:44;4.40;99.90
2893;DHT22;1456;51.840;12.184;2023-02-11T05:41:12;4.50;99.90
2893;DHT22;1456;51.840;12.184;2023-02-11T05:43:37;4.50;99.90
2893;DHT22;1456;51.840;12.184;2023-02-11T05:46:04;4.50;99.90
2893;DHT22;1456;51.840;12.184;2023-02-11T05:48:30;4.50;99.90
2893;DHT22;1456;51.840;12.184;2023-02-11T05:50:56;4.60;99.90
2893;DHT22;1456;51.840;12.184;2023-02-11T05:53:21;4.70;99.90
2893;DHT22;1456;51.840;12.184;2023-02-11T05:55:47;4.70;99.90
2893;DHT22;1456;51.840;12.184;2023-02-11T05:58:13;4.80;99.90
2893;DHT22;1456;51.840;12.184;2023-02-11T06:00:38;4.90;99.90
2893;DHT22;1456;51.840;12.184;2023-02-11T06:03:04;4.90;99.90
2893;DHT22;1456;51.840;12.184;2023-02-11T06:05:30;4.90;99.90
2893;DHT22;1456;51.840;12.184;2023-02-11T06:07:56;4.80;99.90
2893;DHT22;1456;51.840;12.184;2023-02-11T06:10:22;4.70;99.90
2893;DHT22;1456;51.840;12.184;2023-02-11T06:12:48;4.70;99.90
2893;DHT22;1456;51.840;12.184;2023-02-11T06:15:13;4.60;99.90
2893;DHT22;1456;51.840;12.184;2023-02-11T06:17:39;4.60;99.90
2893;DHT22;1456;51.840;12.184;2023-02-11T06:20:06;4.70;99.90
2893;DHT22;1456;51.840;12.184;2023-02-11T06:22:33;4.70;99.90
2893;DHT22;1456;51.840;12.184;2023-02-11T06:24:58;4.60;99.90
2893;DHT22;1456;51.840;12.184;2023-02-11T06:27:24;4.70;99.90
2893;DHT22;1456;51.840;12.184;2023-02-11T06:29:50;4.70;99.90
2893;DHT22;1456;51.840;12.184;2023-02-11T06:32:17;4.80;99.90
2893;DHT22;1456;51.840;12.184;2023-02-11T06:34:43;4.90;99.90
2893;DHT22;1456;51.840;12.184;2023-02-11T06:37:09;5.10;99.90
2893;DHT22;1456;51.840;12.184;2023-02-11T06:39:35;5.10;99.90
2893;DHT22;1456;51.840;12.184;2023-02-11T06:42:01;5.10;99.90
2893;DHT22;1456;51.840;12.184;2023-02-11T06:44:26;5.10;99.90
2893;DHT22;1456;51.840;12.184;2023-02-11T06:46:52;5.10;99.90
2893;DHT22;1456;51.840;12.184;2023-02-11T06:49:17;5.10;99.90
2893;DHT22;1456;51.840;12.184;2023-02-11T06:51:43;5.10;99.90
2893;DHT22;1456;51.840;12.184;2023-02-11T06:54:10;5.10;99.90
2893;DHT22;1456;51.840;12.184;2023-02-11T06:56:39;5.10;99.90
2893;DHT22;1456;51.840;12.184;2023-02-11T06:59:06;5.20;99.90
2893;DHT22;1456;51.840;12.184;2023-02-11T07:01:31;5.10;99.90
2893;DHT22;1456;51.840;12.184;2023-02-11T07:03:57;5.20;99.90
2893;DHT22;1456;51.840;12.184;2023-02-11T07:06:25;5.30;99.90
2893;DHT22;1456;51.840;12.184;2023-02-11T07:08:52;5.30;99.90
2893;DHT22;1456;51.840;12.184;2023-02-11T07:11:21;5.30;99.90
2893;DHT22;1456;51.840;12.184;2023-02-11T07:13:49;5.40;99.90
2893;DHT22;1456;51.840;12.184;2023-02-11T07:16:17;5.40;99.90
2893;DHT22;1456;51.840;12.184;2023-02-11T07:18:44;5.40;99.90
2893;DHT22;1456;51.840;12.184;2023-02-11T07:21:15;5.30;99.90
2893;DHT22;1456;51.840;12.184;2023-02-11T07:23:41;5.40;99.90
2893;DHT22;1456;51.840;12.184;2023-02-11T07:26:09;5.40;99.90
2893;DHT22;1456;51.840;12.184;2023-02-11T07:28:36;5.50;99.90
2893;DHT22;1456;51.840;12.184;2023-02-11T07:33:36;5.40;99.90
2893;DHT22;1456;51.840;12.184;2023-02-11T07:36:03;5.40;99.90
2893;DHT22;1456;51.840;12.184;2023-02-11T07:38:31;5.50;99.90
2893;DHT22;1456;51.840;12.184;2023-02-11T07:41:05;5.60;99.90
2893;DHT22;1456;51.840;12.184;2023-02-11T07:43:31;5.70;99.90
2893;DHT22;1456;51.840;12.184;2023-02-11T07:45:57;5.80;99.90
2893;DHT22;1456;51.840;12.184;2023-02-11T07:48:23;5.90;99.90
2893;DHT22;1456;51.840;12.184;2023-02-11T07:50:49;5.90;99.90
2893;DHT22;1456;51.840;12.184;2023-02-11T07:53:15;5.90;99.90
2893;DHT22;1456;51.840;12.184;2023-02-11T07:55:44;5.90;99.90
2893;DHT22;1456;51.840;12.184;2023-02-11T07:58:10;5.90;99.90
2893;DHT22;1456;51.840;12.184;2023-02-11T08:00:35;5.90;99.90
2893;DHT22;1456;51.840;12.184;2023-02-11T08:03:01;5.80;99.90
2893;DHT22;1456;51.840;12.184;2023-02-11T08:05:28;5.80;99.90
2893;DHT22;1456;51.840;12.184;2023-02-11T08:07:55;5.80;99.90
2893;DHT22;1456;51.840;12.184;2023-02-11T08:10:21;5.80;99.90
2893;DHT22;1456;51.840;12.184;2023-02-11T08:12:47;5.90;99.90
2893;DHT22;1456;51.840;12.184;2023-02-11T08:15:13;6.10;99.90
2893;DHT22;1456;51.840;12.184;2023-02-11T08:17:38;6.10;99.90
2893;DHT22;1456;51.840;12.184;2023-02-11T08:20:05;6.20;99.90
2893;DHT22;1456;51.840;12.184;2023-02-11T08:22:32;6.30;99.90
2893;DHT22;1456;51.840;12.184;2023-02-11T08:24:58;6.40;99.90
2893;DHT22;1456;51.840;12.184;2023-02-11T08:27:24;6.40;99.90
2893;DHT22;1456;51.840;12.184;2023-02-11T08:29:51;6.40;99.90
2893;DHT22;1456;51.840;12.184;2023-02-11T08:32:17;6.30;99.90
2893;DHT22;1456;51.840;12.184;2023-02-11T08:34:43;6.30;99.90
2893;DHT22;1456;51.840;12.184;2023-02-11T08:37:08;6.20;99.90
2893;DHT22;1456;51.840;12.184;2023-02-11T08:39:34;6.20;99.90
2893;DHT22;1456;51.840;12.184;2023-02-11T08:42:00;6.30;99.90
2893;DHT22;1456;51.840;12.184;2023-02-11T08:44:25;6.40;99.90
2893;DHT22;1456;51.840;12.184;2023-02-11T08:46:52;6.50;99.90
2893;DHT22;1456;51.840;12.184;2023-02-11T08:49:18;6.60;99.90
2893;DHT22;1456;51.840;12.184;2023-02-11T08:51:44;6.70;99.90
2893;DHT22;1456;51.840;12.184;2023-02-11T08:54:10;6.70;99.90
2893;DHT22;1456;51.840;12.184;2023-02-11T08:56:37;6.70;99.90
2893;DHT22;1456;51.840;12.184;2023-02-11T08:59:04;6.60;99.90
2893;DHT22;1456;51.840;12.184;2023-02-11T09:01:30;6.60;99.90
2893;DHT22;1456;51.840;12.184;2023-02-11T09:03:57;6.50;99.90
2893;DHT22;1456;51.840;12.184;2023-02-11T09:06:24;6.50;99.90
2893;DHT22;1456;51.840;12.184;2023-02-11T09:08:52;6.60;99.90
2893;DHT22;1456;51.840;12.184;2023-02-11T09:11:20;6.70;99.90
2893;DHT22;1456;51.840;12.184;2023-02-11T09:13:46;6.80;99.90
2893;DHT22;1456;51.840;12.184;2023-02-11T09:16:20;6.90;99.90
2893;DHT22;1456;51.840;12.184;2023-02-11T09:18:48;7.10;99.90
2893;DHT22;1456;51.840;12.184;2023-02-11T09:21:15;7.10;99.90
2893;DHT22;1456;51.840;12.184;2023-02-11T09:23:41;7.00;99.90
2893;DHT22;1456;51.840;12.184;2023-02-11T09:26:17;6.90;99.90
2893;DHT22;1456;51.840;12.184;2023-02-11T09:28:43;6.90;99.90
2893;DHT22;1456;51.840;12.184;2023-02-11T09:31:12;6.90;99.90
2893;DHT22;1456;51.840;12.184;2023-02-11T09:33:39;6.90;99.90
2893;DHT22;1456;51.840;12.184;2023-02-11T09:36:07;6.90;99.90
2893;DHT22;1456;51.840;12.184;2023-02-11T09:38:33;6.80;99.90
2893;DHT22;1456;51.840;12.184;2023-02-11T09:41:00;7.00;99.90
2893;DHT22;1456;51.840;12.184;2023-02-11T09:43:37;7.10;99.90
2893;DHT22;1456;51.840;12.184;2023-02-11T09:46:15;7.10;99.90
2893;DHT22;1456;51.840;12.184;2023-02-11T09:48:43;7.20;99.90
2893;DHT22;1456;51.840;12.184;2023-02-11T09:51:35;7.40;99.90
2893;DHT22;1456;51.840;12.184;2023-02-11T09:54:17;7.60;99.90
2893;DHT22;1456;51.840;12.184;2023-02-11T09:56:44;7.60;99.90
2893;DHT22;1456;51.840;12.184;2023-02-11T09:59:14;7.50;99.90
2893;DHT22;1456;51.840;12.184;2023-02-11T10:01:52;7.50;99.90
2893;DHT22;1456;51.840;12.184;2023-02-11T10:07:37;7.60;99.90
2893;DHT22;1456;51.840;12.184;2023-02-11T10:16:15;7.70;99.90
2893;DHT22;1456;51.840;12.184;2023-02-11T10:24:02;7.90;99.90
2893;DHT22;1456;51.840;12.184;2023-02-11T10:26:30;7.90;99.90
2893;DHT22;1456;51.840;12.184;2023-02-11T10:29:00;7.90;99.90
2893;DHT22;1456;51.840;12.184;2023-02-11T10:31:36;7.90;99.90
2893;DHT22;1456;51.840;12.184;2023-02-11T10:34:13;7.80;99.90
2893;DHT22;1456;51.840;12.184;2023-02-11T10:36:41;7.70;99.90
2893;DHT22;1456;51.840;12.184;2023-02-11T10:39:17;7.80;99.90
2893;DHT22;1456;51.840;12.184;2023-02-11T10:41:46;7.90;99.90
2893;DHT22;1456;51.840;12.184;2023-02-11T10:46:53;8.00;99.90
2893;DHT22;1456;51.840;12.184;2023-02-11T10:49:35;7.90;99.90
2893;DHT22;1456;51.840;12.184;2023-02-11T10:52:22;7.90;99.90
2893;DHT22;1456;51.840;12.184;2023-02-11T10:55:08;7.90;99.90
2893;DHT22;1456;51.840;12.184;2023-02-11T10:57:58;7.90;99.90
2893;DHT22;1456;51.840;12.184;2023-02-11T11:00:42;8.00;99.90
2893;DHT22;1456;51.840;12.184;2023-02-11T11:03:19;8.10;99.90
2893;DHT22;1456;51.840;12.184;2023-02-11T11:05:59;8.10;99.90
2893;DHT22;1456;51.840;12.184;2023-02-11T11:08:48;8.10;99.90
2893;DHT22;1456;51.840;12.184;2023-02-11T11:11:16;8.20;99.90
2893;DHT22;1456;51.840;12.184;2023-02-11T11:16:28;8.30;99.90
2893;DHT22;1456;51.840;12.184;2023-02-11T11:21:44;8.40;99.90
2893;DHT22;1456;51.840;12.184;2023-02-11T11:26:48;8.60;99.90
2893;DHT22;1456;51.840;12.184;2023-02-11T11:32:00;8.60;99.90
2893;DHT22;1456;51.840;12.184;2023-02-11T11:34:37;8.40;99.90
2893;DHT22;1456;51.840;12.184;2023-02-11T11:37:19;8.40;99.90
2893;DHT22;1456;51.840;12.184;2023-02-11T11:39:59;8.40;99.90
2893;DHT22;1456;51.840;12.184;2023-02-11T11:42:34;8.40;99.90
2893;DHT22;1456;51.840;12.184;2023-02-11T11:50:41;8.60;99.90
2893;DHT22;1456;51.840;12.184;2023-02-11T11:56:12;8.60;99.90
2893;DHT22;1456;51.840;12.184;2023-02-11T11:58:40;8.70;99.90
2893;DHT22;1456;51.840;12.184;2023-02-11T12:15:33;8.60;99.90
2893;DHT22;1456;51.840;12.184;2023-02-11T12:18:20;8.70;99.90
2893;DHT22;1456;51.840;12.184;2023-02-11T12:29:03;8.80;99.90
2893;DHT22;1456;51.840;12.184;2023-02-11T12:32:07;8.70;99.90
2893;DHT22;1456;51.840;12.184;2023-02-11T12:43:39;8.60;99.90
2893;DHT22;1456;51.840;12.184;2023-02-11T12:46:35;8.60;99.90
2893;DHT22;1456;51.840;12.184;2023-02-11T12:54:58;8.80;99.90
2893;DHT22;1456;51.840;12.184;2023-02-11T12:57:43;9.00;99.90
2893;DHT22;1456;51.840;12.184;2023-02-11T13:00:22;9.10;99.90
2893;DHT22;1456;51.840;12.184;2023-02-11T13:03:05;9.00;99.90
2893;DHT22;1456;51.840;12.184;2023-02-11T13:05:47;9.00;99.90
2893;DHT22;1456;51.840;12.184;2023-02-11T13:08:22;8.90;99.90
2893;DHT22;1456;51.840;12.184;2023-02-11T13:10:53;9.00;99.90
2893;DHT22;1456;51.840;12.184;2023-02-11T13:14:01;9.00;99.90
2893;DHT22;1456;51.840;12.184;2023-02-11T13:16:40;8.90;99.90
2893;DHT22;1456;51.840;12.184;2023-02-11T13:36:14;8.40;99.90
2893;DHT22;1456;51.840;12.184;2023-02-11T13:38:53;8.40;99.90
2893;DHT22;1456;51.840;12.184;2023-02-11T13:41:30;8.40;99.90
2893;DHT22;1456;51.840;12.184;2023-02-11T13:44:00;8.50;99.90
2893;DHT22;1456;51.840;12.184;2023-02-11T13:46:46;8.50;99.90
2893;DHT22;1456;51.840;12.184;2023-02-11T13:51:48;8.40;99.90
2893;DHT22;1456;51.840;12.184;2023-02-11T13:54:41;8.50;99.90
2893;DHT22;1456;51.840;12.184;2023-02-11T13:59:52;8.40;99.90
2893;DHT22;1456;51.840;12.184;2023-02-11T14:02:35;8.40;99.90
2893;DHT22;1456;51.840;12.184;2023-02-11T14:05:28;8.50;99.90
2893;DHT22;1456;51.840;12.184;2023-02-11T14:08:18;8.50;99.90
2893;DHT22;1456;51.840;12.184;2023-02-11T14:14:19;8.60;99.90
2893;DHT22;1456;51.840;12.184;2023-02-11T14:16:21;8.60;99.90
2893;DHT22;1456;51.840;12.184;2023-02-11T14:23:52;8.70;99.90
2893;DHT22;1456;51.840;12.184;2023-02-11T14:31:21;8.70;99.90
2893;DHT22;1456;51.840;12.184;2023-02-11T14:37:02;8.60;99.90
2893;DHT22;1456;51.840;12.184;2023-02-11T14:39:55;8.50;99.90
2893;DHT22;1456;51.840;12.184;2023-02-11T14:42:24;8.40;99.90
2893;DHT22;1456;51.840;12.184;2023-02-11T14:44:53;8.40;99.90
2893;DHT22;1456;51.840;12.184;2023-02-11T14:47:35;8.40;99.90
2893;DHT22;1456;51.840;12.184;2023-02-11T14:50:04;8.40;99.90
2893;DHT22;1456;51.840;12.184;2023-02-11T14:52:36;8.30;99.90
2893;DHT22;1456;51.840;12.184;2023-02-11T14:57:38;8.20;99.90
2893;DHT22;1456;51.840;12.184;2023-02-11T15:00:18;8.30;99.90
2893;DHT22;1456;51.840;12.184;2023-02-11T15:02:47;8.30;99.90
2893;DHT22;1456;51.840;12.184;2023-02-11T15:05:22;8.30;99.90
2893;DHT22;1456;51.840;12.184;2023-02-11T15:08:01;8.30;99.90
2893;DHT22;1456;51.840;12.184;2023-02-11T15:10:32;8.30;99.90
2893;DHT22;1456;51.840;12.184;2023-02-11T15:13:00;8.20;99.90
2893;DHT22;1456;51.840;12.184;2023-02-11T15:15:28;8.20;99.90
2893;DHT22;1456;51.840;12.184;2023-02-11T15:17:55;8.20;99.90
2893;DHT22;1456;51.840;12.184;2023-02-11T15:20:28;8.30;99.90
2893;DHT22;1456;51.840;12.184;2023-02-11T15:22:58;8.30;99.90
2893;DHT22;1456;51.840;12.184;2023-02-11T15:25:25;8.30;99.90
2893;DHT22;1456;51.840;12.184;2023-02-11T15:27:54;8.30;99.90
2893;DHT22;1456;51.840;12.184;2023-02-11T15:33:01;8.20;99.90
2893;DHT22;1456;51.840;12.184;2023-02-11T15:35:34;8.20;99.90
2893;DHT22;1456;51.840;12.184;2023-02-11T15:38:01;8.30;99.90
2893;DHT22;1456;51.840;12.184;2023-02-11T15:40:30;8.30;99.90
2893;DHT22;1456;51.840;12.184;2023-02-11T15:43:06;8.30;99.90
2893;DHT22;1456;51.840;12.184;2023-02-11T15:48:15;8.20;99.90
2893;DHT22;1456;51.840;12.184;2023-02-11T15:50:50;8.20;99.90
2893;DHT22;1456;51.840;12.184;2023-02-11T15:53:30;8.20;99.90
2893;DHT22;1456;51.840;12.184;2023-02-11T15:56:24;8.20;99.90
2893;DHT22;1456;51.840;12.184;2023-02-11T15:58:52;8.20;99.90
2893;DHT22;1456;51.840;12.184;2023-02-11T16:01:31;8.30;99.90
2893;DHT22;1456;51.840;12.184;2023-02-11T16:03:58;8.30;99.90
2893;DHT22;1456;51.840;12.184;2023-02-11T16:06:26;8.20;99.90
2893;DHT22;1456;51.840;12.184;2023-02-11T16:11:54;8.20;99.90
2893;DHT22;1456;51.840;12.184;2023-02-11T16:17:11;8.30;99.90
2893;DHT22;1456;51.840;12.184;2023-02-11T16:19:46;8.10;99.90
2893;DHT22;1456;51.840;12.184;2023-02-11T16:22:23;8.20;99.90
2893;DHT22;1456;51.840;12.184;2023-02-11T16:24:52;8.10;99.90
2893;DHT22;1456;51.840;12.184;2023-02-11T16:27:28;8.10;99.90
2893;DHT22;1456;51.840;12.184;2023-02-11T16:29:57;8.10;99.90
2893;DHT22;1456;51.840;12.184;2023-02-11T16:32:25;8.00;99.90
2893;DHT22;1456;51.840;12.184;2023-02-11T16:34:53;8.00;99.90
2893;DHT22;1456;51.840;12.184;2023-02-11T16:37:19;8.10;99.90
2893;DHT22;1456;51.840;12.184;2023-02-11T16:39:45;8.00;99.90
2893;DHT22;1456;51.840;12.184;2023-02-11T16:42:12;8.00;99.90
2893;DHT22;1456;51.840;12.184;2023-02-11T16:44:37;8.10;99.90
2893;DHT22;1456;51.840;12.184;2023-02-11T16:47:12;8.10;99.90
2893;DHT22;1456;51.840;12.184;2023-02-11T16:49:40;8.10;99.90
2893;DHT22;1456;51.840;12.184;2023-02-11T16:52:14;8.10;99.90
2893;DHT22;1456;51.840;12.184;2023-02-11T16:54:40;8.10;99.90
2893;DHT22;1456;51.840;12.184;2023-02-11T16:57:18;8.10;99.90
2893;DHT22;1456;51.840;12.184;2023-02-11T16:59:45;8.10;99.90
2893;DHT22;1456;51.840;12.184;2023-02-11T17:04:45;8.10;99.90
2893;DHT22;1456;51.840;12.184;2023-02-11T17:07:11;8.20;99.90
2893;DHT22;1456;51.840;12.184;2023-02-11T17:09:37;8.10;99.90
2893;DHT22;1456;51.840;12.184;2023-02-11T17:12:02;8.10;99.90
2893;DHT22;1456;51.840;12.184;2023-02-11T17:14:28;8.10;99.90
2893;DHT22;1456;51.840;12.184;2023-02-11T17:16:55;8.10;99.90
2893;DHT22;1456;51.840;12.184;2023-02-11T17:19:21;8.10;99.90
2893;DHT22;1456;51.840;12.184;2023-02-11T17:21:48;8.10;99.90
2893;DHT22;1456;51.840;12.184;2023-02-11T17:24:15;8.10;99.90
2893;DHT22;1456;51.840;12.184;2023-02-11T17:26:43;8.00;99.90
2893;DHT22;1456;51.840;12.184;2023-02-11T17:29:12;8.10;99.90
2893;DHT22;1456;51.840;12.184;2023-02-11T17:31:38;8.10;99.90
2893;DHT22;1456;51.840;12.184;2023-02-11T17:34:06;8.10;99.90
2893;DHT22;1456;51.840;12.184;2023-02-11T17:36:32;8.10;99.90
2893;DHT22;1456;51.840;12.184;2023-02-11T17:38:59;8.10;99.90
2893;DHT22;1456;51.840;12.184;2023-02-11T17:41:25;8.10;99.90
2893;DHT22;1456;51.840;12.184;2023-02-11T17:43:51;8.00;99.90
2893;DHT22;1456;51.840;12.184;2023-02-11T17:46:26;8.00;99.90
2893;DHT22;1456;51.840;12.184;2023-02-11T17:48:53;8.00;99.90
2893;DHT22;1456;51.840;12.184;2023-02-11T17:51:22;8.10;99.90
2893;DHT22;1456;51.840;12.184;2023-02-11T17:53:49;8.10;99.90
2893;DHT22;1456;51.840;12.184;2023-02-11T17:56:15;8.00;99.90
2893;DHT22;1456;51.840;12.184;2023-02-11T17:58:41;8.10;99.90
2893;DHT22;1456;51.840;12.184;2023-02-11T18:01:07;8.10;99.90
2893;DHT22;1456;51.840;12.184;2023-02-11T18:03:32;8.10;99.90
2893;DHT22;1456;51.840;12.184;2023-02-11T18:06:03;8.10;99.90
2893;DHT22;1456;51.840;12.184;2023-02-11T18:08:29;8.10;99.90
2893;DHT22;1456;51.840;12.184;2023-02-11T18:10:57;8.00;99.90
2893;DHT22;1456;51.840;12.184;2023-02-11T18:13:23;8.00;99.90
2893;DHT22;1456;51.840;12.184;2023-02-11T18:15:49;7.80;99.90
2893;DHT22;1456;51.840;12.184;2023-02-11T18:18:15;8.00;99.90
2893;DHT22;1456;51.840;12.184;2023-02-11T18:20:41;8.00;99.90
2893;DHT22;1456;51.840;12.184;2023-02-11T18:23:11;8.00;99.90
2893;DHT22;1456;51.840;12.184;2023-02-11T18:25:40;8.00;99.90
2893;DHT22;1456;51.840;12.184;2023-02-11T18:28:06;7.90;99.90
2893;DHT22;1456;51.840;12.184;2023-02-11T18:30:32;7.90;99.90
2893;DHT22;1456;51.840;12.184;2023-02-11T18:32:58;7.80;99.90
2893;DHT22;1456;51.840;12.184;2023-02-11T18:35:24;7.80;99.90
2893;DHT22;1456;51.840;12.184;2023-02-11T18:37:51;7.80;99.90
2893;DHT22;1456;51.840;12.184;2023-02-11T18:40:17;7.90;99.90
2893;DHT22;1456;51.840;12.184;2023-02-11T18:42:44;7.80;99.90
2893;DHT22;1456;51.840;12.184;2023-02-11T18:45:11;7.80;99.90
2893;DHT22;1456;51.840;12.184;2023-02-11T18:47:40;7.90;99.90
2893;DHT22;1456;51.840;12.184;2023-02-11T18:50:08;7.90;99.90
2893;DHT22;1456;51.840;12.184;2023-02-11T18:52:34;8.00;99.90
2893;DHT22;1456;51.840;12.184;2023-02-11T18:55:03;7.90;99.90
2893;DHT22;1456;51.840;12.184;2023-02-11T18:57:29;7.90;99.90
2893;DHT22;1456;51.840;12.184;2023-02-11T18:59:56;7.90;99.90
2893;DHT22;1456;51.840;12.184;2023-02-11T19:02:21;7.90;99.90
2893;DHT22;1456;51.840;12.184;2023-02-11T19:04:50;7.90;99.90
2893;DHT22;1456;51.840;12.184;2023-02-11T19:07:16;7.90;99.90
2893;DHT22;1456;51.840;12.184;2023-02-11T19:16:26;7.90;99.90
2893;DHT22;1456;51.840;12.184;2023-02-11T19:18:52;7.90;99.90
2893;DHT22;1456;51.840;12.184;2023-02-11T19:24:33;7.90;99.90
2893;DHT22;1456;51.840;12.184;2023-02-11T19:27:02;7.80;99.90
2893;DHT22;1456;51.840;12.184;2023-02-11T19:29:29;7.90;99.90